»·PEaware :: N733BV KTCY-KCIC

N733BV :: KTCY-KCIC

FLIGHT INFORMATION

Flight Status: Arrived
Operator: Privately registered:
United States
More flights under this callsign
Pilot: Chuck B. (42222)
Aircraft: CESSNA 172 SKYHAWK
(C172)
More flights by this aircraft type
Origin: KTCY Tracy Mun
United States
Destination: KCIC Chico Mun
United States
More flights between these airports :: More routes between these airports
Route: RBLEW T261 JINGO
File this flight plan on PilotEdge
Remarks:
Altitude:
(Current/Filed)
4,000ft
Speed:
(Current/Filed)
110kts
Departed: 24-Jan-23 07:15 PM
Arrived: 24-Jan-23 08:43 PM
Distance/Time
Traveled:
128nm/1:28
Distance/Time
To Go:
Arrived

Flight Plot

Page will automatically refresh every two minutes.

Flight plan parsing failed; only flown route is shown


Map Options




Map Legend


Flown Route
Filed Route
Departure Airport
Arrival Airport
Navaid (VOR, NDB)
Fix

Horizontal Profiles

Position Reports

Time Latitude Longitude Heading Altitude Ground
Speed
24-Jan-23 19:06 37.687555 -121.438604 311 185ft 0kts
24-Jan-23 19:07 37.687555 -121.438604 311 185ft 0kts
24-Jan-23 19:08 37.687555 -121.438604 311 185ft 0kts
24-Jan-23 19:09 37.687555 -121.438604 311 185ft 0kts
24-Jan-23 19:10 37.687555 -121.438604 311 185ft 0kts
24-Jan-23 19:11 37.687555 -121.438604 311 185ft 0kts
24-Jan-23 19:12 37.687324 -121.439042 194 186ft 11kts
24-Jan-23 19:13 37.684586 -121.435290 143 188ft 0kts
24-Jan-23 19:14 37.689198 -121.443246 312 311ft 86kts
24-Jan-23 19:15 37.709448 -121.462408 335 1311ft 92kts
24-Jan-23 19:16 37.733315 -121.476310 345 2270ft 91kts
24-Jan-23 19:17 37.755375 -121.485120 350 3287ft 84kts
24-Jan-23 19:18 37.781167 -121.491194 350 3917ft 108kts
24-Jan-23 19:19 37.811533 -121.497201 349 4098ft 104kts
24-Jan-23 19:20 37.841957 -121.503087 356 4042ft 116kts
24-Jan-23 19:21 37.874140 -121.508622 351 3660ft 113kts
24-Jan-23 19:22 37.904194 -121.512282 3 3407ft 107kts
24-Jan-23 19:23 37.931408 -121.515190 0 3533ft 94kts
24-Jan-23 19:24 37.957590 -121.517768 356 3635ft 98kts
24-Jan-23 19:25 37.987963 -121.521487 350 3662ft 114kts
24-Jan-23 19:26 38.019732 -121.526462 355 3710ft 116kts
24-Jan-23 19:27 38.052204 -121.531757 355 3697ft 117kts
24-Jan-23 19:28 38.084642 -121.536474 354 3689ft 118kts
24-Jan-23 19:29 38.117463 -121.540869 10 3637ft 119kts
24-Jan-23 19:30 38.150426 -121.547030 354 3566ft 117kts
24-Jan-23 19:31 38.182443 -121.554670 353 3576ft 117kts
24-Jan-23 19:32 38.214723 -121.562200 347 3533ft 120kts
24-Jan-23 19:33 38.245407 -121.574430 341 3665ft 113kts
24-Jan-23 19:34 38.276316 -121.578869 345 3776ft 113kts
24-Jan-23 19:35 38.307748 -121.590086 350 3719ft 119kts
24-Jan-23 19:36 38.340196 -121.596943 344 3690ft 120kts
24-Jan-23 19:37 38.371603 -121.609501 338 3691ft 118kts
24-Jan-23 19:38 38.400677 -121.629201 348 3485ft 131kts
24-Jan-23 19:39 38.434591 -121.635248 353 3478ft 114kts
24-Jan-23 19:40 38.465184 -121.641160 351 3675ft 111kts
24-Jan-23 19:41 38.496804 -121.646324 352 3709ft 116kts
24-Jan-23 19:42 38.529593 -121.651337 350 3656ft 119kts
24-Jan-23 19:43 38.562181 -121.657754 352 3633ft 119kts
24-Jan-23 19:44 38.594466 -121.662375 354 3702ft 114kts
24-Jan-23 19:45 38.626475 -121.667875 349 3700ft 119kts
24-Jan-23 19:46 38.659073 -121.672511 352 3713ft 118kts
24-Jan-23 19:47 38.691297 -121.679920 349 3713ft 118kts
24-Jan-23 19:48 38.723586 -121.686293 350 3703ft 116kts
24-Jan-23 19:49 38.755311 -121.693452 356 3636ft 114kts
24-Jan-23 19:50 38.786650 -121.697899 346 3658ft 110kts
24-Jan-23 19:51 38.817574 -121.704013 355 3640ft 113kts
24-Jan-23 19:52 38.848650 -121.711310 350 3616ft 113kts
24-Jan-23 19:53 38.880142 -121.714933 2 3585ft 115kts
24-Jan-23 19:54 38.911466 -121.716380 354 3607ft 113kts
24-Jan-23 19:55 38.941997 -121.720384 353 3665ft 112kts
24-Jan-23 19:56 38.973372 -121.724824 350 3652ft 112kts
24-Jan-23 19:57 39.004535 -121.722228 12 3640ft 111kts
24-Jan-23 19:58 39.035042 -121.713546 17 3548ft 115kts
24-Jan-23 19:59 39.066060 -121.718375 348 3565ft 113kts
24-Jan-23 20:00 39.097064 -121.725902 353 3538ft 114kts
24-Jan-23 20:01 39.127878 -121.733719 348 3559ft 111kts
24-Jan-23 20:02 39.156913 -121.747069 339 3589ft 112kts
24-Jan-23 20:03 39.186892 -121.758557 342 3585ft 112kts
24-Jan-23 20:04 39.216224 -121.769686 339 3676ft 109kts
24-Jan-23 20:05 39.245707 -121.781352 346 3692ft 113kts
24-Jan-23 20:06 39.275706 -121.793383 338 3698ft 112kts
24-Jan-23 20:07 39.305543 -121.806124 340 3688ft 113kts
24-Jan-23 20:08 39.335719 -121.819047 338 3641ft 114kts
24-Jan-23 20:09 39.365403 -121.833168 341 3635ft 112kts
24-Jan-23 20:10 39.394878 -121.846596 336 3634ft 114kts
24-Jan-23 20:11 39.423005 -121.864653 327 3649ft 112kts
24-Jan-23 20:12 39.451734 -121.880765 334 3630ft 114kts
24-Jan-23 20:13 39.481067 -121.894940 342 3648ft 113kts
24-Jan-23 20:14 39.510214 -121.908564 334 3727ft 108kts
24-Jan-23 20:16 39.538167 -121.926493 339 3712ft 112kts
24-Jan-23 20:17 39.566388 -121.944107 330 3726ft 112kts
24-Jan-23 20:18 39.593883 -121.964142 334 3690ft 113kts
24-Jan-23 20:19 39.624184 -121.977008 343 3625ft 115kts
24-Jan-23 20:20 39.654536 -121.987883 343 3654ft 113kts
24-Jan-23 20:21 39.685132 -121.999016 344 3601ft 114kts
24-Jan-23 20:22 39.715480 -122.009533 342 3626ft 112kts
24-Jan-23 20:23 39.745196 -122.022625 340 3641ft 112kts
24-Jan-23 20:24 39.774975 -122.035121 339 3653ft 111kts
24-Jan-23 20:25 39.804986 -122.046459 343 3654ft 113kts
24-Jan-23 20:26 39.833801 -122.059405 319 3747ft 110kts
24-Jan-23 20:27 39.861124 -122.079378 331 3698ft 114kts
24-Jan-23 20:28 39.890059 -122.098058 336 3596ft 117kts
24-Jan-23 20:29 39.919115 -122.114927 347 3600ft 114kts
24-Jan-23 20:30 39.949523 -122.106828 11 3653ft 110kts
24-Jan-23 20:31 39.979989 -122.096556 15 3631ft 112kts
24-Jan-23 20:32 40.000945 -122.067401 56 3643ft 110kts
24-Jan-23 20:33 39.992535 -122.029316 126 2985ft 121kts
24-Jan-23 20:34 39.975228 -121.997373 134 2135ft 117kts
24-Jan-23 20:35 39.951480 -121.975229 174 1417ft 96kts
24-Jan-23 20:36 39.926291 -121.962369 154 1330ft 96kts
24-Jan-23 20:37 39.903067 -121.944536 153 1342ft 103kts
24-Jan-23 20:38 39.879073 -121.926533 140 1405ft 99kts
24-Jan-23 20:39 39.856707 -121.906700 151 1475ft 99kts
24-Jan-23 20:40 39.833578 -121.888233 149 1138ft 97kts
24-Jan-23 20:41 39.817148 -121.875130 147 630ft 60kts
24-Jan-23 20:41 39.805677 -121.865928 147 340ft 57kts
24-Jan-23 20:43 39.801104 -121.860058 68 236ft 17kts

Navigation Log

Ident Type
Flight plan parsing failed, navigation log unavailable